Bookmark and Share
Track history (hours):
 

Astra

Last reported at 2014-Apr-18 20:12 UTC. Time now 2014-Apr-19 06:58 UTC.
Position N 49°23' E 008°30'.

Length 110 m.

Type: Tanker. MMSI: 244650752.

NotesDate/timePositionNaut miles runAvg speedWind from/ knotsBaromVisibWave heightAir tempDewpointWater temp
2014-Apr-18 20:12N 49°23' E 008°30'5 7.6
2014-Apr-18 19:33N 49°18' E 008°29'9 9.5
2014-Apr-18 18:33N 49°09' E 008°22'1111.1
2014-Apr-18 17:33N 48°59' E 008°16'11 9.2
2014-Apr-18 16:22N 48°50' E 008°07'7 8.2
2014-Apr-18 15:31N 48°46' E 007°59'6 0.3
2014-Apr-17 17:23N 48°40' E 007°54'2 2.2
2014-Apr-17 16:33N 48°42' E 007°55'5 5.1
2014-Apr-17 15:33N 48°46' E 008°00'7 5.0
2014-Apr-17 14:08N 48°51' E 008°07'3 3.8
2014-Apr-17 13:26N 48°54' E 008°08'4 3.8
2014-Apr-17 12:29N 48°57' E 008°11'3 3.5
2014-Apr-17 11:33N 48°59' E 008°15'4 3.5
2014-Apr-17 10:33N 49°02' E 008°18'4 3.9
2014-Apr-17 09:33N 49°05' E 008°21'4 3.6
2014-Apr-17 08:33N 49°09' E 008°22'4 4.1
2014-Apr-17 07:33N 49°13' E 008°23'4 4.1
2014-Apr-17 06:32N 49°16' E 008°27'3 3.1
2014-Apr-17 05:33N 49°19' E 008°27'  
2014-Apr-14 08:33N 51°11' E 006°48'4 4.0
2014-Apr-14 07:33N 51°14' E 006°44'39 4.1
2014-Apr-13 22:09N 51°49' E 006°17'10 5.8
2014-Apr-13 20:28N 51°52' E 006°02'6 4.7
2014-Apr-13 19:07N 51°51' E 005°52'3 5.9
2014-Apr-13 18:32N 51°53' E 005°47'6 6.4
2014-Apr-13 17:32N 51°54' E 005°37'6 6.3
2014-Apr-13 16:33N 51°53' E 005°27'6 6.3
2014-Apr-13 15:33N 51°48' E 005°21'6 6.2
2014-Apr-13 14:33N 51°49' E 005°11'8 7.6
2014-Apr-13 13:33N 51°49' E 004°59'8 8.4
2014-Apr-13 12:33N 51°49' E 004°45'7 7.1
2014-Apr-13 11:33N 51°49' E 004°34'8 8.2
2014-Apr-13 10:33N 51°51' E 004°21'2 2.0
2014-Apr-13 09:33N 51°53' E 004°21'0 0.0
2014-Apr-13 08:33N 51°53' E 004°21'0 0.0
2014-Apr-13 07:33N 51°53' E 004°21'0 0.0
2014-Apr-13 06:33N 51°53' E 004°21'0 0.0
2014-Apr-13 05:33N 51°53' E 004°21'0 0.0
2014-Apr-13 04:33N 51°53' E 004°21'0 0.0
2014-Apr-13 03:33N 51°53' E 004°21'0 0.2
2014-Apr-13 02:33N 51°53' E 004°22'0 0.3
2014-Apr-13 01:32N 51°54' E 004°22'0 0.0
2014-Apr-13 00:33N 51°54' E 004°22'0 0.0
2014-Apr-12 23:33N 51°54' E 004°22'0 0.0
2014-Apr-12 22:33N 51°54' E 004°22'0 0.0
2014-Apr-12 21:33N 51°54' E 004°22'0 0.0
2014-Apr-12 20:33N 51°54' E 004°22'0 0.0
2014-Apr-12 19:33N 51°54' E 004°22'0 0.0
2014-Apr-12 18:33N 51°54' E 004°22'0 0.0
2014-Apr-12 17:33N 51°54' E 004°22'0 0.0
2014-Apr-12 16:33N 51°54' E 004°22'0 0.0
2014-Apr-12 15:33N 51°54' E 004°22'0 0.0
2014-Apr-12 14:33N 51°54' E 004°22'0 0.0
2014-Apr-12 13:33N 51°54' E 004°22'0 0.0
2014-Apr-12 12:27N 51°54' E 004°22'0 0.0
2014-Apr-12 11:31N 51°54' E 004°22'0 0.0
2014-Apr-12 10:25N 51°54' E 004°22'0 0.0
2014-Apr-12 08:29N 51°54' E 004°22'0 0.0
2014-Apr-12 07:18N 51°54' E 004°22'0 0.0
2014-Apr-12 06:28N 51°54' E 004°22'0 0.0
2014-Apr-12 05:33N 51°54' E 004°22'0 0.0
2014-Apr-12 04:32N 51°54' E 004°22'6 6.2
2014-Apr-12 03:33N 51°54' E 004°32'6 6.3
2014-Apr-12 02:33N 51°51' E 004°40'6 6.2
2014-Apr-12 01:33N 51°49' E 004°50'7 7.0
2014-Apr-12 00:33N 51°49' E 005°01'9 8.6
2014-Apr-11 23:33N 51°49' E 005°15'7 7.1
2014-Apr-11 22:33N 51°52' E 005°26'9 9.2
2014-Apr-11 21:33N 51°54' E 005°40'9 8.3
2014-Apr-11 20:25N 51°53' E 005°55'6 7.3
2014-Apr-11 19:33N 51°51' E 006°05'10 9.1
2014-Apr-11 18:29N 51°47' E 006°19'37 6.3
2014-Apr-11 12:33N 51°13' E 006°44'5 0.4
2014-Apr-10 21:16N 51°09' E 006°48'3 4.1
2014-Apr-10 20:33N 51°11' E 006°46'3 2.6
2014-Apr-10 19:33N 51°14' E 006°45'3 2.9
2014-Apr-10 18:33N 51°16' E 006°42'47 3.8
2014-Apr-10 06:15N 51°52' E 005°55'4 5.0
2014-Apr-10 05:32N 51°52' E 005°50'6 6.2
2014-Apr-10 04:32N 51°54' E 005°40'6 6.0
2014-Apr-10 03:33N 51°53' E 005°31'6 5.6
2014-Apr-10 02:33N 51°50' E 005°24'5 5.0
2014-Apr-10 01:33N 51°49' E 005°16'7 6.9
2014-Apr-10 00:33N 51°50' E 005°04'8 8.2
2014-Apr-09 23:33N 51°49' E 004°51'8 7.8
2014-Apr-09 22:33N 51°51' E 004°39'8 7.8
2014-Apr-09 21:33N 51°54' E 004°27'3 0.1
2014-Apr-09 00:25N 51°53' E 004°22'0 0.1
2014-Apr-08 21:07N 51°54' E 004°22'2 3.2
2014-Apr-08 20:32N 51°53' E 004°19'  

Dump ship's entire track history

sailing weather and tide predictions

Astra — PB4187 — position and weather